Aviation Digital Data Service (ADDS)

Output produced by TAFs form (2131 UTC 17 July 2018)
found at http://www.aviationweather.gov/adds/tafs/
 
EGPK 172120Z 00000KT 9999 SCT045 15/10 Q1015
TAF EGPK 171702Z 1718/1818 24010KT 9999 SCT035 
     BECMG 1721/1724 15005KT 
     PROB30 
     TEMPO 1800/1806 7000 
     BECMG 1809/1812 27010KT 
     PROB30 
     TEMPO 1812/1818 7000 SHRA